Auswertemonat:01/Stundenwerte

Datum Zeit A-temp Windchill Feuchte Druck Regen Wind Wind Böe Windr. UVI
    C C % rel. hPa mm/m2 Km/h Km/h Grad  
01.01.2018 00:00 9,6 5,8 79 1003.4 0.00 6.30 6.40 180 0.0
01.01.2018 01:00 9,3 6,8 76 1004.4 0.00 9.30 15.60 202 0.0
01.01.2018 02:00 9,1 6,6 72 1004.4 0.00 10.80 13.00 202 0.0
01.01.2018 03:00 8,8 6,1 73 1005.1 0.00 16.30 23.30 202 0.0
01.01.2018 04:00 8,5 5,6 69 1005.4 0.00 14.50 19.30 202 0.0
01.01.2018 05:00 7,9 5,1 72 1006.0 0.00 9.50 18.70 68 0.0
01.01.2018 06:00 6,9 3,7 75 1006.3 0.00 23.30 31.10 180 0.0
01.01.2018 07:00 6,7 3,7 74 1007.0 0.00 13.70 17.20 248 0.0
01.01.2018 08:00 6,1 2,8 76 1007.7 0.00 16.60 17.40 0 0.0
01.01.2018 09:00 5,9 2,6 76 1007.9 0.00 11.90 15.60 292 0.0
01.01.2018 10:00 6,5 2,9 75 1007.9 0.00 21.90 28.80 202 0.0
01.01.2018 11:00 6,5 2,8 76 1008.0 0.00 20.10 21.20 248 0.0
01.01.2018 12:00 7,2 5,1 72 1006.3 0.00 12.40 15.30 202 0.0
01.01.2018 13:00 7,5 5,7 69 1005.1 0.00 8.20 10.10 180 0.0
01.01.2018 14:00 7,7 5,1 68 1003.5 0.00 15.30 19.30 202 0.0
01.01.2018 15:00 7,6 4,5 69 1002.2 0.00 13.20 15.60 225 0.0
01.01.2018 16:00 6,3 4,3 78 1000.3 0.74 1.00 1.80 315 0.0
01.01.2018 17:00 5,7 4,2 82 998.7 0.00 1.60 2.70 225 0.0
01.01.2018 18:00 5,6 4,3 83 998.1 0.74 4.30 6.10 248 0.0
01.01.2018 19:00 5,9 2,1 83 997.5 0.74 7.70 9.20 202 0.0
01.01.2018 20:00 6,1 1,8 83 997.6 0.00 19.50 22.50 225 0.0
01.01.2018 21:00 5,8 1,6 84 997.7 0.74 6.40 8.50 338 0.0
01.01.2018 22:00 5,9 2,7 86 998.9 0.00 10.80 16.60 202 0.0
01.01.2018 23:00 6,0 2,8 86 1001.1 0.74 12.40 15.60 202 0.0
02.01.2018 00:00 5,8 2,4 81 1002.9 0.00 4.50 5.80 315 0.0
02.01.2018 01:00 5,7 1,7 78 1004.8 0.00 10.50 21.10 180 0.0
02.01.2018 02:00 5,2 1,8 78 1005.9 0.00 7.40 8.50 225 0.0
02.01.2018 03:00 5,3 2,8 81 1006.8 0.00 1.40 4.20 180 0.0
02.01.2018 04:00 5,2 4,1 83 1007.0 0.00 9.30 10.00 202 0.0
02.01.2018 05:00 5,2 4,7 81 1007.6 0.00 5.10 6.30 270 0.0
02.01.2018 06:00 5,2 2,3 81 1008.1 0.00 3.90 4.70 180 0.0
02.01.2018 07:00 5,3 2,8 79 1009.1 0.00 6.40 8.00 202 0.0
02.01.2018 08:00 5,3 2,2 79 1010.4 0.00 4.70 6.00 292 0.0
02.01.2018 09:00 9,3 2,6 71 1011.4 0.00 13.50 17.10 202 0.0
02.01.2018 10:00 8,2 3,6 69 1012.8 0.00 9.00 10.50 202 0.0
02.01.2018 11:00 9,0 5,5 68 1013.9 0.00 3.50 5.50 270 0.0
02.01.2018 12:00 9,6 6,6 65 1014.1 0.00 7.60 11.90 158 0.0
02.01.2018 13:00 9,7 6,4 66 1013.9 0.00 7.70 8.70 202 0.0
02.01.2018 14:00 9,7 6,4 65 1013.3 0.00 5.00 6.60 202 0.0
02.01.2018 15:00 10,3 6,4 61 1013.4 0.00 6.30 9.50 225 0.0
02.01.2018 16:00 8,9 5,2 65 1013.6 0.00 4.30 5.60 158 0.0
02.01.2018 17:00 8,5 5,0 69 1013.1 0.00 7.90 10.60 202 0.0
02.01.2018 18:00 9,5 5,4 69 1013.2 0.00 5.50 8.50 248 0.0
02.01.2018 19:00 8,8 5,7 70 1012.4 0.00 6.80 7.40 225 0.0
02.01.2018 20:00 8,3 4,9 70 1011.6 0.00 10.00 14.60 90 0.0
02.01.2018 21:00 8,0 4,2 74 1010.4 0.00 6.60 10.90 202 0.0
02.01.2018 22:00 10,4 0,7 75 1008.9 0.74 10.50 12.20 202 0.0
02.01.2018 23:00 10,5 4,3 72 1008.1 0.00 9.30 12.70 225 0.0
03.01.2018 00:00 10,9 2,2 72 1006.6 0.00 18.50 20.60 180 0.0
03.01.2018 01:00 9,0 2,5 77 1004.7 0.74 13.70 15.40 202 0.0
03.01.2018 02:00 8,9 3,3 79 1002.8 0.00 21.40 24.00 202 0.0
03.01.2018 03:00 9,6 4,1 81 1001.3 0.00 5.50 6.30 248 0.0
03.01.2018 04:00 10,1 4,9 81 997.4 0.00 20.40 28.30 248 0.0
03.01.2018 05:00 10,5 5,2 83 994.3 0.74 16.10 27.80 180 0.0
03.01.2018 06:00 11,1 6,0 83 992.2 0.74 19.80 24.00 180 0.0
03.01.2018 07:00 11,5 6,6 84 989.0 2.94 18.30 20.10 202 0.0
03.01.2018 08:00 9,7 6,8 88 992.3 8.09 4.50 5.80 0 0.0
03.01.2018 09:00 9,2 6,3 87 993.2 0.74 8.70 12.60 315 0.0
03.01.2018 10:00 6,8 1,7 84 994.4 0.74 19.80 24.60 225 0.0
03.01.2018 11:00 6,4 3,4 85 995.4 0.00 18.80 22.00 180 0.0
03.01.2018 12:00 7,3 5,6 78 996.6 0.00 9.50 11.90 68 0.0
03.01.2018 13:00 7,8 5,3 67 998.4 0.00 13.70 26.60 202 0.0
03.01.2018 14:00 7,3 4,6 73 999.4 0.00 13.40 19.80 270 0.0
03.01.2018 15:00 6,9 2,5 77 1000.8 0.74 7.10 9.50 180 0.0
03.01.2018 16:00 6,8 3,0 77 1001.6 0.74 7.20 7.60 180 0.0
03.01.2018 17:00 7,0 3,3 75 1001.8 0.00 9.70 19.00 202 0.0
03.01.2018 18:00 6,9 2,2 77 1002.4 0.00 13.50 16.30 180 0.0
03.01.2018 19:00 6,6 3,1 79 1002.7 0.00 14.30 18.70 202 0.0
03.01.2018 20:00 6,9 4,6 76 1002.8 0.00 13.80 16.30 180 0.0
03.01.2018 21:00 7,1 4,3 75 1002.9 0.00 7.40 8.20 202 0.0
03.01.2018 22:00 7,0 3,2 75 1003.5 0.00 14.50 19.20 180 0.0
03.01.2018 23:00 6,0 2,0 82 1003.6 0.00 9.00 12.40 225 0.0
04.01.2018 00:00 6,1 2,2 81 1003.6 0.74 14.60 18.30 248 0.0
04.01.2018 01:00 5,8 2,4 81 1003.2 0.00 6.30 8.20 225 0.0
04.01.2018 02:00 5,9 2,6 83 1003.0 0.00 11.10 14.60 202 0.0
04.01.2018 03:00 6,1 2,3 84 1002.4 0.00 14.30 19.80 180 0.0
04.01.2018 04:00 6,1 5,0 86 1002.6 1.47 6.00 9.00 202 0.0
04.01.2018 05:00 5,4 4,4 86 1002.4 1.47 3.70 6.90 338 0.0
04.01.2018 06:00 5,4 4,4 87 1002.1 0.00 7.70 9.70 202 0.0
04.01.2018 07:00 5,7 4,9 87 1001.6 0.00 9.70 10.60 338 0.0
04.01.2018 08:00 5,9 5,3 88 1000.7 0.00 10.60 11.60 202 0.0
04.01.2018 09:00 6,3 5,8 89 1000.3 0.00 8.40 10.50 202 0.0
04.01.2018 10:00 7,0 6,4 89 1000.3 0.74 5.60 6.80 202 0.0
04.01.2018 11:00 7,4 6,7 88 999.2 0.74 3.40 3.50 225 0.0
04.01.2018 12:00 7,9 7,1 88 997.9 0.74 6.40 10.00 202 0.0
04.01.2018 13:00 8,5 7,7 88 996.7 0.74 11.10 15.00 202 0.0
04.01.2018 14:00 9,1 8,4 89 996.0 0.74 0.60 2.10 158 0.0
04.01.2018 15:00 10,0 9,6 91 995.8 1.47 5.50 6.30 202 0.0
04.01.2018 16:00 11,6 9,8 90 995.1 1.47 7.20 11.40 22 0.0
04.01.2018 17:00 11,9 9,2 89 995.2 0.74 18.30 30.60 202 0.0
04.01.2018 18:00 11,9 8,9 87 995.4 0.00 18.80 22.50 180 0.0
04.01.2018 19:00 11,6 10,7 88 995.8 2.21 14.50 18.80 202 0.0
04.01.2018 20:00 10,1 7,6 90 995.8 8.09 6.30 9.20 202 0.0
04.01.2018 21:00 9,3 5,9 87 996.4 0.00 14.30 15.90 202 0.0
04.01.2018 22:00 8,9 6,7 87 997.6 0.00 16.70 24.30 180 0.0
04.01.2018 23:00 8,7 8,5 84 998.9 0.00 3.10 5.80 338 0.0
05.01.2018 00:00 8,5 6,6 80 1000.1 0.00 3.70 4.00 202 0.0
05.01.2018 01:00 7,7 5,3 77 1000.0 0.00 10.60 13.80 68 0.0
05.01.2018 02:00 7,6 5,2 77 1000.9 0.00 14.20 16.70 180 0.0
05.01.2018 03:00 7,4 5,3 79 1000.7 0.00 11.70 14.80 202 0.0
05.01.2018 04:00 7,5 5,3 82 1000.0 0.00 12.60 19.30 202 0.0
05.01.2018 05:00 8,0 5,2 82 999.4 0.00 15.10 17.10 180 0.0
05.01.2018 06:00 8,0 4,1 86 999.4 0.00 22.40 28.80 180 0.0
05.01.2018 07:00 8,0 4,9 86 998.9 0.00 12.70 16.70 202 0.0
05.01.2018 08:00 8,1 4,3 86 999.0 0.00 30.10 37.80 202 0.0
05.01.2018 09:00 8,1 4,9 87 998.9 0.00 7.60 9.70 202 0.0
05.01.2018 10:00 8,8 5,6 86 999.3 0.74 14.30 20.10 225 0.0
05.01.2018 11:00 9,3 6,4 85 999.5 0.00 10.60 15.00 180 0.0
05.01.2018 12:00 9,7 6,4 83 998.5 0.00 7.90 10.30 180 0.0
05.01.2018 13:00 9,6 7,1 84 998.6 0.00 16.10 17.90 202 0.0
05.01.2018 14:00 9,7 8,5 85 998.5 0.00 7.40 8.00 202 0.0
05.01.2018 15:00 9,6 8,3 85 999.0 0.74 5.30 7.20 180 0.0
05.01.2018 16:00 9,3 7,9 86 999.5 0.74 0.00 0.00 202 0.0
05.01.2018 17:00 8,5 7,2 86 999.9 1.47 4.30 5.80 202 0.0
05.01.2018 18:00 8,3 7,2 87 1000.6 0.74 2.30 3.70 225 0.0
05.01.2018 19:00 8,0 6,9 86 1001.2 0.00 1.30 2.30 202 0.0
05.01.2018 20:00 7,7 6,9 87 1001.9 0.00 5.10 7.10 202 0.0
05.01.2018 21:00 7,7 7,1 88 1002.1 0.00 1.90 3.50 202 0.0
05.01.2018 22:00 7,9 7,7 88 1002.9 0.00 12.70 18.50 180 0.0
05.01.2018 23:00 8,1 6,4 86 1003.1 0.00 4.20 5.30 248 0.0
06.01.2018 00:00 7,9 5,8 85 1003.6 0.00 5.00 6.80 202 0.0
06.01.2018 01:00 7,7 7,2 86 1003.8 0.00 5.10 7.20 202 0.0
06.01.2018 02:00 7,7 7,4 86 1004.1 0.00 2.60 3.50 202 0.0
06.01.2018 03:00 7,8 7,2 86 1003.9 0.00 1.00 3.10 202 0.0
06.01.2018 04:00 7,8 7,4 86 1003.8 0.00 0.60 1.90 202 0.0
06.01.2018 05:00 8,0 7,4 86 1003.8 0.00 0.00 0.00 248 0.0
06.01.2018 06:00 7,8 6,9 86 1004.0 0.00 0.00 0.00 180 0.0
06.01.2018 07:00 7,7 6,4 86 1004.2 0.00 0.00 0.00 0 0.0
06.01.2018 08:00 7,5 6,4 86 1004.3 0.00 0.00 0.00 225 0.0
06.01.2018 09:00 7,5 6,7 86 1005.3 0.00 0.00 0.00 22 0.0
06.01.2018 10:00 8,3 7,8 84 1005.5 0.00 0.00 0.00 248 0.0
06.01.2018 11:00 8,8 9,0 83 1006.2 0.00 0.00 0.00 202 0.0
06.01.2018 12:00 9,5 9,5 81 1006.2 0.00 0.00 0.00 315 0.0
06.01.2018 13:00 9,7 9,3 79 1006.0 0.00 0.00 0.00 202 0.0
06.01.2018 14:00 9,9 8,4 78 1005.6 0.00 0.00 0.00 202 0.0
06.01.2018 15:00 9,3 8,0 84 1006.4 0.74 0.00 0.00 202 0.0
06.01.2018 16:00 9,0 7,6 86 1006.8 1.47 0.00 0.00 68 0.0
06.01.2018 17:00 8,5 7,4 87 1007.1 0.74 0.00 0.00 225 0.0
06.01.2018 18:00 8,1 7,1 88 1007.7 0.00 0.00 0.00 202 0.0
06.01.2018 19:00 8,0 7,1 89 1008.0 0.74 0.00 0.00 158 0.0
06.01.2018 20:00 8,0 7,1 89 1008.6 0.00 0.00 0.00 180 0.0
06.01.2018 21:00 8,0 6,9 89 1009.5 0.00 0.00 0.00 180 0.0
06.01.2018 22:00 7,7 6,5 88 1009.7 0.00 0.00 0.00 158 0.0
06.01.2018 23:00 7,2 6,2 88 1010.6 0.00 0.00 0.00 180 0.0
07.01.2018 00:00 6,9 6,2 89 1010.9 0.00 0.00 0.00 202 0.0
07.01.2018 01:00 6,7 6,2 89 1011.6 0.00 0.00 0.00 202 0.0
07.01.2018 02:00 6,6 5,8 89 1011.9 0.00 0.00 0.00 202 0.0
07.01.2018 03:00 6,5 5,9 88 1012.6 0.00 0.00 0.00 180 0.0
07.01.2018 04:00 6,2 5,7 87 1013.2 0.00 1.00 2.90 158 0.0
07.01.2018 05:00 6,0 5,5 87 1013.5 0.00 0.00 0.00 158 0.0
07.01.2018 06:00 5,6 5,2 87 1013.8 0.00 0.00 0.00 158 0.0
07.01.2018 07:00 5,3 4,9 88 1014.2 0.00 3.20 3.40 180 0.0
07.01.2018 08:00 5,0 4,5 88 1015.0 0.00 2.70 3.40 180 0.0
07.01.2018 09:00 4,9 4,4 88 1016.1 0.00 0.00 0.00 225 0.0
07.01.2018 10:00 4,9 4,6 88 1017.4 0.00 0.00 0.00 202 0.0
07.01.2018 11:00 4,9 4,8 86 1018.1 0.00 1.40 4.30 68 0.0
07.01.2018 12:00 5,0 5,0 85 1018.3 0.00 0.00 0.00 202 0.0
07.01.2018 13:00 5,0 5,0 84 1018.1 0.00 2.10 3.20 202 0.0
07.01.2018 14:00 4,9 4,8 83 1017.9 0.00 1.00 3.10 202 0.0
07.01.2018 15:00 4,9 4,7 83 1017.9 0.00 1.30 3.70 202 0.0
07.01.2018 16:00 4,9 4,7 83 1018.3 0.00 1.60 3.10 248 0.0
07.01.2018 17:00 4,9 4,6 82 1018.4 0.00 0.00 0.00 202 0.0
07.01.2018 18:00 4,9 4,5 82 1018.9 0.00 2.90 3.90 202 0.0
07.01.2018 19:00 4,9 4,5 82 1019.3 0.00 1.00 2.90 202 0.0
07.01.2018 20:00 4,8 4,4 82 1019.4 0.00 0.00 0.00 158 0.0
07.01.2018 21:00 4,4 4,0 83 1019.8 0.00 0.00 0.00 180 0.0
07.01.2018 22:00 4,2 3,8 84 1020.1 0.00 0.00 0.00 270 0.0
07.01.2018 23:00 4,1 3,8 84 1019.9 0.00 0.00 0.00 180 0.0
08.01.2018 00:00 4,1 3,9 84 1019.7 0.00 0.00 0.00 158 0.0
08.01.2018 01:00 3,9 3,6 85 1019.4 0.00 4.50 7.10 158 0.0
08.01.2018 02:00 3,9 3,7 85 1019.1 0.00 0.00 0.00 202 0.0
08.01.2018 03:00 3,9 3,7 85 1019.1 0.00 3.50 7.70 112 0.0
08.01.2018 04:00 4,0 3,7 85 1019.3 0.00 0.00 0.00 180 0.0
08.01.2018 05:00 4,2 3,9 86 1019.3 0.00 0.00 0.00 315 0.0
08.01.2018 06:00 4,3 4,0 85 1019.3 0.00 0.00 0.00 158 0.0
08.01.2018 07:00 4,4 4,1 85 1019.1 0.00 0.00 0.00 158 0.0
08.01.2018 08:00 4,6 4,4 85 1018.9 0.00 1.10 3.20 180 0.0
08.01.2018 09:00 4,9 4,8 84 1019.4 0.00 0.60 1.80 112 0.0
08.01.2018 10:00 5,0 5,0 84 1019.7 0.00 0.00 0.00 180 0.0
08.01.2018 11:00 5,3 5,2 84 1019.8 0.00 0.00 0.00 225 0.0
08.01.2018 12:00 5,5 5,6 83 1018.8 0.00 0.80 2.40 158 0.0
08.01.2018 13:00 6,0 6,2 81 1018.2 0.00 0.00 0.00 202 0.0
08.01.2018 14:00 6,3 6,4 79 1017.9 0.00 0.00 0.00 180 0.0
08.01.2018 15:00 6,1 5,9 80 1017.7 0.00 4.00 5.80 112 0.0
08.01.2018 16:00 6,1 5,8 80 1017.7 0.00 0.00 0.00 202 0.0
08.01.2018 17:00 6,0 5,6 80 1017.6 0.00 1.30 3.70 180 0.0
08.01.2018 18:00 5,9 5,5 81 1017.6 0.00 1.10 2.30 202 0.0
08.01.2018 19:00 5,8 5,5 81 1017.1 0.00 0.00 0.00 90 0.0
08.01.2018 20:00 5,8 5,5 81 1017.1 0.00 0.60 2.10 202 0.0
08.01.2018 21:00 5,9 5,6 81 1016.5 0.00 0.00 0.00 225 0.0
08.01.2018 22:00 6,1 5,7 80 1015.9 0.00 4.30 5.10 158 0.0
08.01.2018 23:00 6,1 5,8 79 1015.4 0.00 0.80 2.40 68 0.0
09.01.2018 00:00 6,1 5,6 80 1014.0 0.00 1.60 2.90 180 0.0
09.01.2018 01:00 5,9 5,5 80 1013.4 0.00 1.00 2.90 158 0.0
09.01.2018 02:00 5,7 5,3 80 1012.6 0.00 0.00 0.00 180 0.0
09.01.2018 03:00 5,4 5,0 81 1012.3 0.00 0.00 0.00 202 0.0
09.01.2018 04:00 5,1 4,5 81 1011.8 0.00 0.60 1.80 202 0.0
09.01.2018 05:00 4,6 4,0 82 1010.9 0.00 0.00 0.00 180 0.0
09.01.2018 06:00 4,4 3,9 83 1011.9 0.00 0.00 0.00 68 0.0
09.01.2018 07:00 4,6 4,1 83 1011.2 0.00 0.00 0.00 248 0.0
09.01.2018 08:00 4,3 3,4 83 1010.3 0.00 0.00 0.00 202 0.0
09.01.2018 09:00 4,3 4,0 84 1010.2 0.00 0.00 0.00 135 0.0
09.01.2018 10:00 4,9 4,3 83 1010.9 0.00 0.00 0.00 158 0.0
09.01.2018 11:00 5,8 6,3 81 1010.8 0.00 0.00 0.00 68 0.0